Time;durP1;ratioP1;P1;durP2;ratioP2;P2;SDS_P1;SDS_P2;PMS_P1;PMS_P2;Temp;Humidity;BMP_temperature;BMP_pressure;BME280_temperature;BME280_humidity;BME280_pressure;Samples;Min_cycle;Max_cycle;Signal;HPM_P1;HPM_P2
2021/10/21 00:02:07;;;;;;;4.70;3.20;;;16.40;99.90;;;;;;5053009;28;20205;-63
2021/10/21 00:04:34;;;;;;;4.17;3.27;;;16.30;99.90;;;;;;5052760;28;20588;-63
2021/10/21 00:07:01;;;;;;;3.20;2.87;;;16.20;99.90;;;;;;5052966;28;20241;-63
2021/10/21 00:09:29;;;;;;;4.13;3.23;;;16.30;99.90;;;;;;5052772;28;20226;-63
2021/10/21 00:11:56;;;;;;;6.10;2.73;;;16.30;99.90;;;;;;5052625;28;20217;-63
2021/10/21 00:14:22;;;;;;;4.20;2.40;;;16.30;99.90;;;;;;5052426;28;20259;-63
2021/10/21 00:16:49;;;;;;;3.20;2.40;;;16.20;99.90;;;;;;5052944;28;20205;-64
2021/10/21 00:19:16;;;;;;;9.17;4.93;;;15.90;99.90;;;;;;5052405;28;20229;-63
2021/10/21 00:21:44;;;;;;;4.00;2.60;;;15.90;99.90;;;;;;5052466;28;20205;-64
2021/10/21 00:24:11;;;;;;;3.70;3.03;;;16.00;99.90;;;;;;5052266;28;20209;-63
2021/10/21 00:26:39;;;;;;;3.57;2.87;;;16.00;99.90;;;;;;5052216;28;20694;-63
2021/10/21 00:29:05;;;;;;;5.87;3.07;;;16.10;99.90;;;;;;5051842;28;20617;-63
2021/10/21 00:31:32;;;;;;;4.73;3.13;;;16.10;99.90;;;;;;5052180;28;20677;-64
2021/10/21 00:33:58;;;;;;;4.53;2.73;;;16.20;99.90;;;;;;5052141;28;20260;-64
2021/10/21 00:36:25;;;;;;;7.97;2.90;;;16.20;99.90;;;;;;5052194;28;20205;-64
2021/10/21 00:38:52;;;;;;;3.40;2.47;;;16.20;99.90;;;;;;5052532;28;20225;-64
2021/10/21 00:41:18;;;;;;;4.57;2.90;;;16.10;99.90;;;;;;5052191;28;20206;-63
2021/10/21 00:43:46;;;;;;;4.97;2.87;;;16.10;99.90;;;;;;5052466;28;20209;-63
2021/10/21 00:46:14;;;;;;;4.57;3.23;;;16.10;99.90;;;;;;5052187;28;20225;-63
2021/10/21 00:48:42;;;;;;;4.23;2.80;;;16.00;99.90;;;;;;5051651;28;20230;-63
2021/10/21 00:51:11;;;;;;;3.63;2.73;;;15.90;99.90;;;;;;5051861;28;20205;-62
2021/10/21 00:53:39;;;;;;;4.33;2.93;;;15.70;99.90;;;;;;5051234;28;20643;-62
2021/10/21 00:56:07;;;;;;;4.07;3.07;;;15.70;99.90;;;;;;5052135;28;20206;-62
2021/10/21 00:58:35;;;;;;;4.47;3.20;;;15.70;99.90;;;;;;5051972;28;20206;-62
2021/10/21 01:01:03;;;;;;;4.00;3.33;;;15.60;99.90;;;;;;5051768;28;20213;-62
2021/10/21 01:03:30;;;;;;;5.77;3.50;;;15.50;99.90;;;;;;5051690;28;20575;-63
2021/10/21 01:05:56;;;;;;;3.93;3.37;;;15.40;99.90;;;;;;5051366;28;20624;-63
2021/10/21 01:08:24;;;;;;;5.13;3.50;;;15.40;99.90;;;;;;5051263;28;20206;-63
2021/10/21 01:10:51;;;;;;;4.37;3.73;;;15.40;99.90;;;;;;5051364;28;20213;-63
2021/10/21 01:13:18;;;;;;;7.50;3.97;;;15.40;99.90;;;;;;5051548;28;20259;-63
2021/10/21 01:15:44;;;;;;;5.40;4.27;;;15.60;99.90;;;;;;5051432;28;20214;-63
2021/10/21 01:18:13;;;;;;;4.80;4.03;;;15.80;99.90;;;;;;5051246;28;20205;-63
2021/10/21 01:20:41;;;;;;;7.23;4.77;;;15.90;99.90;;;;;;5051268;28;20236;-63
2021/10/21 01:23:07;;;;;;;5.07;4.63;;;15.90;99.90;;;;;;5051166;28;20205;-63
2021/10/21 01:25:34;;;;;;;5.30;4.37;;;15.90;99.90;;;;;;5051250;28;20205;-63
2021/10/21 01:28:04;;;;;;;6.10;4.50;;;16.00;99.90;;;;;;5051153;28;20658;-62
2021/10/21 01:30:30;;;;;;;5.33;4.43;;;16.10;99.90;;;;;;5051174;28;20264;-62
2021/10/21 01:32:57;;;;;;;6.13;4.80;;;16.00;99.90;;;;;;5051094;28;20583;-63
2021/10/21 01:35:24;;;;;;;5.47;4.23;;;16.10;99.90;;;;;;5050899;28;20202;-62
2021/10/21 01:37:53;;;;;;;5.60;4.33;;;16.20;99.90;;;;;;5050870;28;20263;-63
2021/10/21 01:40:21;;;;;;;4.87;4.47;;;16.30;99.90;;;;;;5050907;28;20299;-63
2021/10/21 01:42:47;;;;;;;5.37;4.30;;;16.40;99.90;;;;;;5051243;28;20202;-63
2021/10/21 01:45:16;;;;;;;6.17;4.50;;;16.40;99.90;;;;;;5050920;28;20233;-63
2021/10/21 01:47:42;;;;;;;5.53;3.97;;;16.50;99.90;;;;;;5050772;28;20275;-63
2021/10/21 01:50:09;;;;;;;4.70;4.17;;;16.50;99.90;;;;;;5050842;28;20590;-63
2021/10/21 01:52:36;;;;;;;4.33;3.93;;;16.50;99.90;;;;;;5051111;28;20209;-63
2021/10/21 01:55:05;;;;;;;4.40;4.00;;;16.50;99.90;;;;;;5050860;28;20210;-63
2021/10/21 01:57:32;;;;;;;4.43;4.03;;;16.50;99.90;;;;;;5051151;28;20209;-63
2021/10/21 01:59:59;;;;;;;6.27;3.90;;;16.50;99.90;;;;;;5051468;28;20252;-63
2021/10/21 02:02:26;;;;;;;3.87;3.57;;;16.50;99.90;;;;;;5051109;28;20212;-63
2021/10/21 02:04:52;;;;;;;4.20;3.80;;;16.50;99.90;;;;;;5052428;28;20205;-63
2021/10/21 02:07:19;;;;;;;4.10;3.70;;;16.50;99.90;;;;;;5055233;28;20229;-63
2021/10/21 02:09:46;;;;;;;4.17;3.77;;;16.50;99.90;;;;;;5054890;28;20256;-64
2021/10/21 02:12:14;;;;;;;3.93;3.23;;;16.50;99.90;;;;;;5055163;28;20228;-63
2021/10/21 02:14:40;;;;;;;3.43;3.10;;;16.50;99.90;;;;;;5055121;28;20216;-63
2021/10/21 02:17:07;;;;;;;3.80;3.43;;;16.50;99.90;;;;;;5055180;28;20696;-62
2021/10/21 02:19:34;;;;;;;3.53;3.23;;;16.50;99.90;;;;;;5054620;28;20264;-63
2021/10/21 02:22:01;;;;;;;5.63;3.50;;;16.60;99.90;;;;;;5054911;28;20209;-63
2021/10/21 02:24:28;;;;;;;3.73;3.23;;;16.60;99.90;;;;;;5054489;28;20677;-63
2021/10/21 02:26:55;;;;;;;3.77;3.23;;;16.50;99.90;;;;;;5054529;28;20232;-63
2021/10/21 02:29:23;;;;;;;3.20;2.90;;;16.50;99.90;;;;;;5054417;28;20275;-63
2021/10/21 02:31:49;;;;;;;2.83;2.63;;;16.60;99.90;;;;;;5054339;28;20209;-63
2021/10/21 02:34:16;;;;;;;5.17;3.03;;;16.50;99.90;;;;;;5054404;28;20213;-62
2021/10/21 02:36:43;;;;;;;3.67;3.10;;;16.50;99.90;;;;;;5054427;28;20255;-63
2021/10/21 02:39:09;;;;;;;4.10;3.23;;;16.60;99.90;;;;;;5054095;28;20248;-64
2021/10/21 02:41:36;;;;;;;4.13;3.20;;;16.60;99.90;;;;;;5054329;28;20209;-63
2021/10/21 02:44:03;;;;;;;3.00;2.70;;;16.60;99.90;;;;;;5054224;28;20201;-62
2021/10/21 02:46:31;;;;;;;5.10;3.47;;;16.60;99.90;;;;;;5054136;28;20249;-64
2021/10/21 02:48:58;;;;;;;3.27;2.93;;;16.60;99.90;;;;;;5053872;28;20647;-62
2021/10/21 02:51:25;;;;;;;3.30;3.00;;;16.60;99.90;;;;;;5054093;28;20213;-63
2021/10/21 02:53:52;;;;;;;2.90;2.63;;;16.50;99.90;;;;;;5054131;28;20206;-62
2021/10/21 02:56:18;;;;;;;4.63;2.83;;;16.50;99.90;;;;;;5054088;28;20275;-63
2021/10/21 02:58:45;;;;;;;5.73;2.80;;;16.50;99.90;;;;;;5053924;28;20221;-63
2021/10/21 03:01:12;;;;;;;3.50;3.20;;;16.50;99.90;;;;;;5053893;28;20296;-62
2021/10/21 03:03:40;;;;;;;3.33;2.70;;;16.40;99.90;;;;;;5054159;28;20206;-63
2021/10/21 03:06:07;;;;;;;5.23;3.20;;;16.50;99.90;;;;;;5054222;28;20201;-63
2021/10/21 03:08:33;;;;;;;3.53;3.23;;;16.60;99.90;;;;;;5053919;28;20230;-63
2021/10/21 03:11:00;;;;;;;6.67;3.93;;;16.60;99.90;;;;;;5054150;28;20201;-62
2021/10/21 03:13:27;;;;;;;3.50;3.20;;;16.60;99.90;;;;;;5053611;28;20202;-63
2021/10/21 03:15:53;;;;;;;3.40;3.10;;;16.70;99.90;;;;;;5053657;28;20205;-63
2021/10/21 03:18:20;;;;;;;5.10;3.50;;;16.70;99.90;;;;;;5053918;28;20234;-63
2021/10/21 03:20:48;;;;;;;3.67;3.30;;;16.80;99.90;;;;;;5053634;28;20213;-62
2021/10/21 03:23:19;;;;;;;4.90;3.60;;;16.80;99.90;;;;;;5053765;28;20210;-62
2021/10/21 03:25:45;;;;;;;4.30;2.93;;;16.90;99.90;;;;;;5053568;28;20259;-63
2021/10/21 03:28:12;;;;;;;5.93;3.37;;;16.80;99.90;;;;;;5053196;28;20228;-62
2021/10/21 03:30:39;;;;;;;3.30;3.00;;;16.90;99.90;;;;;;5053374;28;20232;-62
2021/10/21 03:33:06;;;;;;;3.43;3.13;;;16.90;99.90;;;;;;5053822;28;20582;-62
2021/10/21 03:35:33;;;;;;;3.37;3.07;;;17.00;99.90;;;;;;5054139;28;20201;-62
2021/10/21 03:38:01;;;;;;;5.77;3.70;;;17.00;99.90;;;;;;5054123;28;20213;-63
2021/10/21 03:40:27;;;;;;;4.07;2.37;;;16.90;99.90;;;;;;5053973;28;20658;-63
2021/10/21 03:42:54;;;;;;;3.28;2.38;;;16.90;99.90;;;;;;5053621;28;20581;-62
2021/10/21 03:45:21;;;;;;;2.93;2.60;;;16.90;99.90;;;;;;5054223;28;20213;-62
2021/10/21 03:47:48;;;;;;;5.20;2.37;;;16.90;99.90;;;;;;5053631;28;20221;-62
2021/10/21 03:50:16;;;;;;;2.80;2.37;;;16.80;99.90;;;;;;5053434;28;20257;-62
2021/10/21 03:52:42;;;;;;;2.70;2.20;;;16.80;99.90;;;;;;5053058;28;20305;-62
2021/10/21 03:55:11;;;;;;;3.10;2.30;;;16.80;99.90;;;;;;5052692;28;20636;-62
2021/10/21 03:57:37;;;;;;;2.90;2.53;;;16.80;99.90;;;;;;5052726;28;20213;-62
2021/10/21 04:00:07;;;;;;;3.27;2.70;;;16.80;99.90;;;;;;5052759;28;20279;-62
2021/10/21 04:02:37;;;;;;;2.53;2.33;;;16.80;99.90;;;;;;5052788;28;20650;-61
2021/10/21 04:05:04;;;;;;;3.30;2.30;;;16.70;99.90;;;;;;5052636;28;20233;-62
2021/10/21 04:07:30;;;;;;;2.75;2.20;;;16.80;99.90;;;;;;5052527;28;20221;-62
2021/10/21 04:09:57;;;;;;;3.90;2.27;;;16.80;99.90;;;;;;5052261;28;20643;-62
2021/10/21 04:12:25;;;;;;;3.03;1.80;;;16.80;99.90;;;;;;5052716;28;20212;-62
2021/10/21 04:14:52;;;;;;;2.67;1.50;;;16.70;99.90;;;;;;5052259;28;20558;-62
2021/10/21 04:17:19;;;;;;;1.57;1.30;;;16.70;99.90;;;;;;5052549;28;20224;-62
2021/10/21 04:19:46;;;;;;;2.10;1.30;;;16.60;99.90;;;;;;5052350;28;20237;-62
2021/10/21 04:22:13;;;;;;;1.10;1.00;;;16.60;99.90;;;;;;5052608;28;20685;-62
2021/10/21 04:24:40;;;;;;;2.33;1.67;;;16.70;99.90;;;;;;5052431;28;20209;-62
2021/10/21 04:27:06;;;;;;;2.20;1.60;;;16.70;99.90;;;;;;5051935;28;20206;-62
2021/10/21 04:29:34;;;;;;;1.83;1.13;;;16.80;99.90;;;;;;5052003;28;20256;-62
2021/10/21 04:32:01;;;;;;;1.50;1.20;;;16.80;99.90;;;;;;5052545;28;20212;-62
2021/10/21 04:34:28;;;;;;;2.57;1.10;;;16.80;99.90;;;;;;5051961;28;20213;-61
2021/10/21 04:36:54;;;;;;;1.70;1.10;;;16.90;99.90;;;;;;5051816;28;20259;-63
2021/10/21 04:39:21;;;;;;;2.60;1.40;;;16.90;99.90;;;;;;5051831;28;20291;-62
2021/10/21 04:41:48;;;;;;;1.37;1.17;;;16.90;99.90;;;;;;5052267;28;20209;-62
2021/10/21 04:44:14;;;;;;;1.40;0.87;;;16.80;99.90;;;;;;5051842;28;20209;-62
2021/10/21 04:46:42;;;;;;;3.47;1.70;;;16.70;99.90;;;;;;5051947;28;20217;-62
2021/10/21 04:49:09;;;;;;;1.23;1.00;;;16.60;99.90;;;;;;5051728;28;20240;-62
2021/10/21 04:51:36;;;;;;;0.90;0.70;;;16.70;99.90;;;;;;5051684;28;20201;-62
2021/10/21 04:54:02;;;;;;;1.57;1.10;;;16.60;99.90;;;;;;5051826;28;20212;-62
2021/10/21 04:56:29;;;;;;;3.43;3.13;;;16.70;99.90;;;;;;5051893;28;20340;-63
2021/10/21 04:58:56;;;;;;;1.53;1.20;;;16.70;99.90;;;;;;5051655;28;20603;-62
2021/10/21 05:01:23;;;;;;;2.27;0.87;;;16.70;99.90;;;;;;5051956;28;20210;-63
2021/10/21 05:03:51;;;;;;;2.73;0.70;;;16.60;99.90;;;;;;5051221;28;20593;-62
2021/10/21 05:06:18;;;;;;;2.72;1.00;;;16.50;99.90;;;;;;5051425;28;20896;-66
2021/10/21 05:08:44;;;;;;;5.90;1.10;;;16.40;99.90;;;;;;5051702;28;20237;-62
2021/10/21 05:11:11;;;;;;;7.33;0.93;;;16.30;99.90;;;;;;5052074;28;20517;-70
2021/10/21 05:13:38;;;;;;;7.33;1.03;;;16.10;99.90;;;;;;5051450;28;20210;-60
2021/10/21 05:16:05;;;;;;;5.60;1.10;;;15.90;99.90;;;;;;5051230;28;20213;-63
2021/10/21 05:18:32;;;;;;;4.20;0.80;;;15.80;99.90;;;;;;5051307;28;20252;-67
2021/10/21 05:21:00;;;;;;;12.27;1.30;;;15.60;99.90;;;;;;5051306;28;20228;-62
2021/10/21 05:23:26;;;;;;;4.00;1.10;;;15.50;99.90;;;;;;5051333;28;20213;-62
2021/10/21 05:25:53;;;;;;;4.20;1.03;;;15.30;99.90;;;;;;5051326;28;20205;-61
2021/10/21 05:28:20;;;;;;;7.77;1.30;;;15.20;99.90;;;;;;5051238;28;20256;-61
2021/10/21 05:30:46;;;;;;;5.17;0.90;;;15.10;99.90;;;;;;5051302;28;20209;-61
2021/10/21 05:33:13;;;;;;;7.40;1.23;;;15.00;99.90;;;;;;5051116;28;20201;-67
2021/10/21 05:35:40;;;;;;;3.30;1.13;;;14.90;99.90;;;;;;5051223;28;20237;-61
2021/10/21 05:38:08;;;;;;;5.33;1.20;;;14.90;99.90;;;;;;5051431;28;20208;-61
2021/10/21 05:40:34;;;;;;;5.50;0.80;;;14.90;99.90;;;;;;5050942;28;20240;-62
2021/10/21 05:43:01;;;;;;;7.37;1.13;;;14.80;99.90;;;;;;5050973;28;20213;-62
2021/10/21 05:45:28;;;;;;;3.30;0.97;;;14.70;99.90;;;;;;5050415;28;20221;-62
2021/10/21 05:47:55;;;;;;;5.03;1.40;;;14.60;99.90;;;;;;5050733;28;20236;-62
2021/10/21 05:50:21;;;;;;;5.50;1.23;;;14.60;99.90;;;;;;5050788;28;20221;-62
2021/10/21 05:52:48;;;;;;;6.17;1.47;;;14.50;99.90;;;;;;5050790;28;20796;-62
2021/10/21 05:55:16;;;;;;;7.17;1.30;;;14.50;99.90;;;;;;5051158;28;20209;-62
2021/10/21 05:57:43;;;;;;;3.85;1.40;;;14.50;99.90;;;;;;5050991;28;20823;-63
2021/10/21 06:00:11;;;;;;;6.77;1.47;;;14.50;99.90;;;;;;5091039;28;20642;-68
2021/10/21 06:02:38;;;;;;;8.37;1.50;;;14.40;99.90;;;;;;5090935;28;20208;-62
2021/10/21 06:05:06;;;;;;;3.97;1.20;;;14.40;99.90;;;;;;5090931;28;20207;-61
2021/10/21 06:07:33;;;;;;;4.67;1.43;;;14.30;99.90;;;;;;5091199;28;20207;-61
2021/10/21 06:10:00;;;;;;;5.17;1.30;;;14.40;99.90;;;;;;5090479;28;20228;-62
2021/10/21 06:12:28;;;;;;;7.50;1.33;;;14.40;99.90;;;;;;5091064;28;20207;-61
2021/10/21 06:14:55;;;;;;;8.00;1.20;;;14.50;99.90;;;;;;5090797;28;20206;-66
2021/10/21 06:17:24;;;;;;;6.03;1.30;;;14.60;99.90;;;;;;5091780;28;20208;-63
2021/10/21 06:19:51;;;;;;;9.47;1.37;;;14.60;99.90;;;;;;5091423;28;20228;-68
2021/10/21 06:22:19;;;;;;;7.17;1.33;;;14.60;99.90;;;;;;5091695;28;20200;-68
2021/10/21 06:24:47;;;;;;;5.87;1.30;;;14.70;99.90;;;;;;5091597;28;20290;-67
2021/10/21 06:27:14;;;;;;;6.57;1.77;;;14.60;99.90;;;;;;5091057;28;20211;-68
2021/10/21 06:29:42;;;;;;;5.87;1.17;;;14.60;99.90;;;;;;5090566;28;20235;-68
2021/10/21 06:32:10;;;;;;;6.30;1.23;;;14.60;99.90;;;;;;5091668;28;20273;-67
2021/10/21 06:34:37;;;;;;;7.90;1.40;;;14.60;99.90;;;;;;5090877;28;20212;-72
2021/10/21 06:37:06;;;;;;;7.00;1.47;;;14.70;99.90;;;;;;5090517;28;20211;-62
2021/10/21 06:39:33;;;;;;;7.57;1.43;;;14.60;99.90;;;;;;5090615;28;20563;-63
2021/10/21 06:42:00;;;;;;;5.77;1.47;;;14.60;99.90;;;;;;5090229;28;20265;-63
2021/10/21 06:44:26;;;;;;;12.57;1.83;;;14.50;99.90;;;;;;5090372;28;20675;-63
2021/10/21 06:46:54;;;;;;;9.30;1.87;;;14.40;99.90;;;;;;5090441;28;20211;-63
2021/10/21 06:49:21;;;;;;;7.43;1.27;;;14.40;99.90;;;;;;5090366;28;20228;-63
2021/10/21 06:51:48;;;;;;;4.47;1.20;;;14.30;99.90;;;;;;5092637;28;20200;-63
2021/10/21 06:54:14;;;;;;;7.97;2.10;;;14.40;99.90;;;;;;5093829;28;20695;-63
2021/10/21 06:56:41;;;;;;;7.23;1.60;;;14.60;99.90;;;;;;5093889;28;20200;-63
2021/10/21 06:59:08;;;;;;;5.67;1.40;;;14.80;99.90;;;;;;5093924;28;20224;-63
2021/10/21 07:01:35;;;;;;;3.87;1.27;;;15.00;99.90;;;;;;5094091;28;20207;-62
2021/10/21 07:04:03;;;;;;;6.93;1.50;;;15.10;99.90;;;;;;5093860;28;20250;-63
2021/10/21 07:06:30;;;;;;;7.00;1.63;;;15.30;99.90;;;;;;5094134;28;20208;-62
2021/10/21 07:08:57;;;;;;;4.80;1.17;;;15.50;99.90;;;;;;5093569;28;20228;-63
2021/10/21 07:11:24;;;;;;;9.17;1.47;;;15.70;99.90;;;;;;5093786;28;20676;-63
2021/10/21 07:13:50;;;;;;;5.53;1.10;;;15.70;99.90;;;;;;5093800;28;20215;-63
2021/10/21 07:16:17;;;;;;;10.33;1.70;;;15.80;99.90;;;;;;5094326;28;20204;-61
2021/10/21 07:18:44;;;;;;;5.37;1.03;;;15.80;99.90;;;;;;5094245;28;20228;-61
2021/10/21 07:21:17;;;;;;;4.10;1.07;;;15.80;99.90;;;;;;5094074;28;20208;-62
2021/10/21 07:23:43;;;;;;;5.77;1.40;;;15.90;99.90;;;;;;5093591;28;20236;-60
2021/10/21 07:26:11;;;;;;;4.20;1.27;;;15.90;99.90;;;;;;5093882;28;20212;-61
2021/10/21 07:28:38;;;;;;;5.70;1.30;;;15.90;99.90;;;;;;5093604;28;20228;-60
2021/10/21 07:31:04;;;;;;;5.70;1.17;;;15.80;99.90;;;;;;5093887;28;20212;-61
2021/10/21 07:33:31;;;;;;;5.97;1.23;;;15.70;99.90;;;;;;5091112;28;20432;-63
2021/10/21 07:35:58;;;;;;;6.53;1.10;;;15.70;99.90;;;;;;5086665;28;20579;-65
2021/10/21 07:38:26;;;;;;;12.67;1.20;;;15.90;99.90;;;;;;5072628;28;20205;-64
2021/10/21 07:40:53;;;;;;;2.90;0.80;;;16.00;99.90;;;;;;5073701;28;20274;-66
2021/10/21 07:43:20;;;;;;;4.03;1.10;;;16.10;99.90;;;;;;5072643;28;20205;-64
2021/10/21 07:45:47;;;;;;;4.37;1.20;;;16.10;99.90;;;;;;5073421;28;20221;-67
2021/10/21 07:48:14;;;;;;;5.33;1.30;;;16.00;99.90;;;;;;5073286;28;20634;-67
2021/10/21 07:50:41;;;;;;;6.57;0.93;;;16.10;99.90;;;;;;5073368;28;20229;-68
2021/10/21 07:53:08;;;;;;;3.80;0.70;;;16.10;99.90;;;;;;5073018;28;20205;-70
2021/10/21 07:55:37;;;;;;;4.87;1.00;;;16.00;99.90;;;;;;5073147;28;20205;-68
2021/10/21 07:58:04;;;;;;;7.80;1.10;;;16.00;99.90;;;;;;5073023;28;20204;-67
2021/10/21 08:00:32;;;;;;;2.17;0.80;;;15.90;99.90;;;;;;5073692;28;20231;-66
2021/10/21 08:02:59;;;;;;;3.10;0.80;;;15.90;99.90;;;;;;5072253;28;20200;-68
2021/10/21 08:05:26;;;;;;;3.87;0.83;;;16.00;99.90;;;;;;5076131;28;20201;-68
2021/10/21 08:07:53;;;;;;;2.40;0.50;;;16.00;99.90;;;;;;5093423;28;20211;-67
2021/10/21 08:10:20;;;;;;;6.93;1.00;;;16.00;99.90;;;;;;5093123;28;20236;-67
2021/10/21 08:12:50;;;;;;;7.00;0.80;;;16.10;99.90;;;;;;5093761;28;20594;-65
2021/10/21 08:15:18;;;;;;;7.93;0.87;;;16.10;99.90;;;;;;5092940;28;20212;-64
2021/10/21 08:17:45;;;;;;;8.40;0.90;;;16.00;99.90;;;;;;5093914;28;20227;-65
2021/10/21 08:20:13;;;;;;;8.17;0.90;;;16.10;99.90;;;;;;5093682;28;20224;-65
2021/10/21 08:22:42;;;;;;;7.20;0.90;;;16.10;99.90;;;;;;5093454;28;20295;-65
2021/10/21 08:25:10;;;;;;;12.93;1.23;;;16.00;99.90;;;;;;5093385;28;20576;-65
2021/10/21 08:27:37;;;;;;;7.03;1.53;;;15.90;99.90;;;;;;5093328;28;20287;-65
2021/10/21 08:30:06;;;;;;;3.63;0.83;;;15.80;99.90;;;;;;5092719;28;20601;-65
2021/10/21 08:32:32;;;;;;;0.97;0.40;;;15.60;99.90;;;;;;5092694;28;20673;-64
2021/10/21 08:34:59;;;;;;;1.80;0.57;;;15.50;99.90;;;;;;5092892;28;20211;-65
2021/10/21 08:37:26;;;;;;;3.60;0.70;;;15.40;99.90;;;;;;5092938;28;20208;-65
2021/10/21 08:39:53;;;;;;;4.00;0.70;;;15.50;99.90;;;;;;5092470;28;20498;-63
2021/10/21 08:42:20;;;;;;;0.93;0.50;;;15.50;99.90;;;;;;5092995;28;20646;-64
2021/10/21 08:44:47;;;;;;;4.07;0.73;;;15.50;99.90;;;;;;5092587;28;20203;-64
2021/10/21 08:47:19;;;;;;;5.90;1.30;;;15.40;99.90;;;;;;5092505;28;20668;-64
2021/10/21 08:49:47;;;;;;;2.87;0.70;;;15.50;99.90;;;;;;5092981;28;20232;-63
2021/10/21 08:52:14;;;;;;;2.47;0.50;;;15.50;99.90;;;;;;5092625;28;20201;-63
2021/10/21 08:54:41;;;;;;;2.80;0.60;;;15.60;99.90;;;;;;5092326;28;20204;-64
2021/10/21 08:57:11;;;;;;;1.83;0.60;;;15.60;99.90;;;;;;5092634;28;20237;-64
2021/10/21 08:59:38;;;;;;;4.13;0.50;;;15.50;99.90;;;;;;5092384;28;20243;-63
2021/10/21 09:02:11;;;;;;;4.63;0.80;;;15.40;99.90;;;;;;5093046;28;20589;-64
2021/10/21 09:04:57;;;;;;;1.53;0.70;;;15.40;99.90;;;;;;5092512;28;20208;-63
2021/10/21 09:10:11;;;;;;;3.97;0.60;;;15.40;99.90;;;;;;5081051;28;20361;-64
2021/10/21 09:12:42;;;;;;;2.30;0.60;;;15.50;99.90;;;;;;5091929;28;20257;-64
2021/10/21 09:15:12;;;;;;;2.93;0.50;;;15.50;99.90;;;;;;5091523;28;20204;-63
2021/10/21 09:17:39;;;;;;;6.33;0.73;;;15.40;99.90;;;;;;5091797;28;20619;-63
2021/10/21 09:20:42;;;;;;;1.50;0.50;;;15.20;99.90;;;;;;5091594;28;20227;-64
2021/10/21 09:23:13;;;;;;;3.23;0.77;;;15.20;99.90;;;;;;5048992;28;20515;-64
2021/10/21 09:25:40;;;;;;;3.90;0.53;;;15.20;99.90;;;;;;5048814;28;20205;-64
2021/10/21 09:28:19;;;;;;;3.70;0.60;;;15.30;99.90;;;;;;5069907;28;20204;-63
2021/10/21 09:30:55;;;;;;;1.63;0.30;;;15.50;99.90;;;;;;5091400;28;20224;-63
2021/10/21 09:33:22;;;;;;;2.40;0.40;;;15.80;99.90;;;;;;5091610;28;20598;-64
2021/10/21 09:35:55;;;;;;;4.53;0.53;;;16.00;99.90;;;;;;5091783;28;20204;-64
2021/10/21 09:38:27;;;;;;;0.73;0.40;;;16.10;99.90;;;;;;5091392;28;20204;-64
2021/10/21 09:40:54;;;;;;;1.10;0.47;;;16.20;99.90;;;;;;5091591;28;20742;-63
2021/10/21 09:43:31;;;;;;;1.43;0.50;;;16.30;99.90;;;;;;5091336;28;20664;-65
2021/10/21 09:45:59;;;;;;;2.33;0.47;;;16.40;99.90;;;;;;5091381;28;20257;-65
2021/10/21 09:48:26;;;;;;;2.37;0.40;;;16.30;99.90;;;;;;5091066;28;20232;-65
2021/10/21 09:50:54;;;;;;;2.30;0.20;;;16.20;99.90;;;;;;5091263;28;20227;-65
2021/10/21 09:53:22;;;;;;;1.50;0.40;;;16.20;99.90;;;;;;5091188;28;20231;-65
2021/10/21 09:55:51;;;;;;;3.00;0.60;;;16.10;99.90;;;;;;5091410;28;20215;-65
2021/10/21 09:58:22;;;;;;;2.87;0.40;;;16.10;99.90;;;;;;5091111;28;20216;-65
2021/10/21 10:00:50;;;;;;;2.77;0.43;;;16.00;99.90;;;;;;5091036;28;20236;-65
2021/10/21 10:03:18;;;;;;;2.10;1.07;;;16.10;99.90;;;;;;5091094;28;20447;-65
2021/10/21 10:05:47;;;;;;;2.93;0.77;;;16.30;99.90;;;;;;5090831;28;20215;-65
2021/10/21 10:08:15;;;;;;;2.47;1.10;;;16.40;99.90;;;;;;5090948;28;20256;-64
2021/10/21 10:10:45;;;;;;;4.30;0.80;;;16.40;99.90;;;;;;5090873;28;20247;-64
2021/10/21 10:13:13;;;;;;;3.47;0.60;;;16.50;99.90;;;;;;5091020;28;20212;-64
2021/10/21 10:15:44;;;;;;;1.50;0.73;;;16.50;99.90;;;;;;5090776;28;20210;-64
2021/10/21 10:18:15;;;;;;;6.00;0.87;;;16.70;99.90;;;;;;5091052;28;20220;-64
2021/10/21 10:20:44;;;;;;;5.40;0.70;;;16.90;99.90;;;;;;5090530;28;20223;-64
2021/10/21 10:23:13;;;;;;;2.70;1.40;;;17.10;99.90;;;;;;5091258;28;20211;-65
2021/10/21 10:25:47;;;;;;;2.03;0.80;;;17.30;99.90;;;;;;5091606;28;20227;-66
2021/10/21 10:28:14;;;;;;;2.63;0.93;;;17.50;99.90;;;;;;5095612;28;20210;-64
2021/10/21 10:30:46;;;;;;;1.73;0.67;;;17.60;99.90;;;;;;5095166;28;20228;-64
2021/10/21 10:33:14;;;;;;;3.50;1.00;;;17.50;99.90;;;;;;5094686;28;20295;-63
2021/10/21 10:35:42;;;;;;;2.87;0.70;;;17.30;99.90;;;;;;5094997;28;20211;-64
2021/10/21 10:38:10;;;;;;;2.87;0.70;;;17.10;99.90;;;;;;5094968;28;20223;-64
2021/10/21 10:40:43;;;;;;;3.27;1.00;;;17.00;99.90;;;;;;5095068;28;20228;-65
2021/10/21 10:43:12;;;;;;;2.73;0.90;;;16.90;99.90;;;;;;5073101;28;20204;-65
2021/10/21 10:45:44;;;;;;;2.07;0.67;;;16.90;99.90;;;;;;5074467;28;20231;-67
2021/10/21 10:48:13;;;;;;;4.37;1.03;;;17.00;99.90;;;;;;5063559;28;20205;-68
2021/10/21 10:50:55;;;;;;;5.37;0.90;;;17.10;99.90;;;;;;5054333;28;20240;-68
2021/10/21 10:53:44;;;;;;;1.67;0.73;;;17.10;99.90;;;;;;5054060;28;20251;-68
2021/10/21 10:56:39;;;;;;;2.00;0.83;;;17.40;99.90;;;;;;5045661;28;20673;-67
2021/10/21 10:59:22;;;;;;;2.97;1.00;;;17.70;99.60;;;;;;5053673;28;20230;-66
2021/10/21 11:01:52;;;;;;;4.87;0.93;;;18.20;98.70;;;;;;5053850;28;20640;-67
2021/10/21 11:04:53;;;;;;;5.22;0.98;;;18.50;98.20;;;;;;5053597;28;20669;-66
2021/10/21 11:07:20;;;;;;;3.58;1.10;;;18.70;97.80;;;;;;5050913;28;20677;-66
2021/10/21 11:09:48;;;;;;;2.83;1.40;;;18.70;97.50;;;;;;5053613;28;20225;-66
2021/10/21 11:12:19;;;;;;;3.83;0.88;;;18.70;97.70;;;;;;5053845;28;20206;-66
2021/10/21 11:14:53;;;;;;;3.13;0.98;;;18.60;97.40;;;;;;5053235;28;20259;-67
2021/10/21 11:17:42;;;;;;;3.88;1.20;;;18.50;97.70;;;;;;5054973;28;20207;-66
2021/10/21 11:20:38;;;;;;;3.67;1.13;;;18.40;97.30;;;;;;5056370;28;20221;-67
2021/10/21 11:23:07;;;;;;;3.13;0.70;;;18.20;97.20;;;;;;5056135;28;20239;-67
2021/10/21 11:25:37;;;;;;;2.97;0.80;;;18.00;97.10;;;;;;5054333;28;20688;-67
2021/10/21 11:28:05;;;;;;;2.03;0.80;;;17.90;96.50;;;;;;5054086;28;20632;-66
2021/10/21 11:30:35;;;;;;;2.10;0.80;;;17.70;96.20;;;;;;5054240;28;20237;-66
2021/10/21 11:33:04;;;;;;;4.80;1.30;;;17.50;96.20;;;;;;5053974;28;20217;-66
2021/10/21 11:35:32;;;;;;;3.07;0.80;;;17.30;96.80;;;;;;5054931;28;20239;-66
2021/10/21 11:38:00;;;;;;;2.53;0.57;;;17.30;96.80;;;;;;5055011;28;20241;-66
2021/10/21 11:40:31;;;;;;;2.90;0.90;;;17.50;97.10;;;;;;5053784;28;20229;-65
2021/10/21 11:43:39;;;;;;;3.30;0.70;;;17.60;96.60;;;;;;5053714;28;20300;-66
2021/10/21 11:46:09;;;;;;;4.97;1.07;;;17.70;97.00;;;;;;5053510;28;20292;-65
2021/10/21 11:48:38;;;;;;;4.63;1.03;;;17.70;95.80;;;;;;5053841;28;20244;-65
2021/10/21 11:51:08;;;;;;;5.23;0.83;;;17.60;95.80;;;;;;5053374;28;20225;-67
2021/10/21 11:53:35;;;;;;;3.53;1.00;;;17.60;95.70;;;;;;5053460;28;20209;-70
2021/10/21 11:56:02;;;;;;;2.83;0.97;;;17.60;95.50;;;;;;5053176;28;20212;-64
2021/10/21 11:58:33;;;;;;;2.90;0.90;;;17.80;95.80;;;;;;5052575;28;20216;-64
2021/10/21 12:01:03;;;;;;;3.00;0.83;;;17.90;94.50;;;;;;5053281;28;20620;-64
2021/10/21 12:03:32;;;;;;;3.50;1.10;;;17.80;94.20;;;;;;5052513;28;20634;-64
2021/10/21 12:06:00;;;;;;;4.27;1.00;;;17.80;94.70;;;;;;5052860;28;20205;-64
2021/10/21 12:08:27;;;;;;;3.63;0.93;;;17.90;94.70;;;;;;5052717;28;20549;-62
2021/10/21 12:10:56;;;;;;;3.83;1.10;;;18.00;94.40;;;;;;5052755;28;20225;-64
2021/10/21 12:13:26;;;;;;;2.80;0.80;;;17.90;94.10;;;;;;5052470;28;20217;-63
2021/10/21 12:15:55;;;;;;;3.43;1.00;;;17.70;94.10;;;;;;5052930;28;20202;-63
2021/10/21 12:18:23;;;;;;;3.73;1.10;;;17.70;94.40;;;;;;5052207;28;20597;-63
2021/10/21 12:20:52;;;;;;;3.90;1.07;;;17.90;95.00;;;;;;5052627;28;20582;-63
2021/10/21 12:23:25;;;;;;;2.83;0.80;;;18.10;94.50;;;;;;5052736;28;20210;-63
2021/10/21 12:25:52;;;;;;;2.28;0.80;;;18.10;93.70;;;;;;5052990;28;20209;-65
2021/10/21 12:28:20;;;;;;;3.40;0.90;;;18.00;93.20;;;;;;5052668;28;20727;-65
2021/10/21 12:30:47;;;;;;;4.63;1.47;;;17.90;93.30;;;;;;5052816;28;20225;-64
2021/10/21 12:33:16;;;;;;;2.70;0.90;;;17.90;93.20;;;;;;5052903;28;20205;-65
2021/10/21 12:36:03;;;;;;;5.33;1.10;;;17.80;93.10;;;;;;5052790;28;20214;-62
2021/10/21 12:38:31;;;;;;;5.63;1.07;;;17.60;93.30;;;;;;5052356;28;20208;-64
2021/10/21 12:41:03;;;;;;;3.00;1.00;;;17.70;93.60;;;;;;5053081;28;20224;-64
2021/10/21 12:43:31;;;;;;;5.83;1.10;;;17.50;93.70;;;;;;5052049;28;20206;-65
2021/10/21 12:46:01;;;;;;;5.63;0.83;;;17.30;93.80;;;;;;5052303;28;20220;-65
2021/10/21 12:48:30;;;;;;;2.87;0.83;;;17.40;93.70;;;;;;5051911;28;20308;-64
2021/10/21 12:51:14;;;;;;;3.13;0.80;;;17.40;94.30;;;;;;5052113;28;20225;-62
2021/10/21 12:53:52;;;;;;;3.60;1.10;;;17.60;94.10;;;;;;5052072;28;20269;-62
2021/10/21 12:56:24;;;;;;;2.70;0.70;;;17.50;93.90;;;;;;5052193;28;20209;-62